createdAt,value
2023-04-25T00:00:23.755Z,6.37
2023-04-25T00:02:51.625Z,6.77
2023-04-25T00:05:20.722Z,5.60
2023-04-25T00:07:49.810Z,6.73
2023-04-25T00:10:17.598Z,6.13
2023-04-25T00:12:45.319Z,6.17
2023-04-25T00:15:13.741Z,6.50
2023-04-25T00:17:41.467Z,6.10
2023-04-25T00:20:10.707Z,6.13
2023-04-25T00:22:39.309Z,5.93
2023-04-25T00:25:09.540Z,6.03
2023-04-25T00:27:37.825Z,6.63
2023-04-25T00:30:06.804Z,8.10
2023-04-25T00:32:34.658Z,6.37
2023-04-25T00:35:02.456Z,6.07
2023-04-25T00:37:30.341Z,6.20
2023-04-25T00:40:00.163Z,6.27
2023-04-25T00:42:29.208Z,6.80
2023-04-25T00:44:57.107Z,6.27
2023-04-25T00:47:25.504Z,6.40
2023-04-25T00:49:54.313Z,6.93
2023-04-25T00:52:22.712Z,6.23
2023-04-25T00:54:50.469Z,6.07
2023-04-25T00:57:18.297Z,7.87
2023-04-25T00:59:48.347Z,6.93
2023-04-25T01:02:16.460Z,6.90
2023-04-25T01:04:44.255Z,8.53
2023-04-25T01:07:12.150Z,6.60
2023-04-25T01:09:40.273Z,7.27
2023-04-25T01:12:08.336Z,7.73
2023-04-25T01:14:36.062Z,7.80
2023-04-25T01:17:05.257Z,7.57
2023-04-25T01:19:33.162Z,7.60
2023-04-25T01:22:02.376Z,8.27
2023-04-25T01:24:30.090Z,7.23
2023-04-25T01:26:57.971Z,7.77
2023-04-25T01:29:26.039Z,8.00
2023-04-25T01:31:54.297Z,7.87
2023-04-25T01:34:22.553Z,9.90
2023-04-25T01:36:51.611Z,8.90
2023-04-25T01:39:21.061Z,8.60
2023-04-25T01:41:48.894Z,8.03
2023-04-25T01:44:17.341Z,10.23
2023-04-25T01:46:45.179Z,8.20
2023-04-25T01:49:13.104Z,9.03
2023-04-25T01:51:40.952Z,8.30
2023-04-25T01:54:09.594Z,8.27
2023-04-25T01:56:40.246Z,8.67
2023-04-25T01:59:08.483Z,9.13
2023-04-25T02:01:36.302Z,8.13
2023-04-25T02:04:04.198Z,8.00
2023-04-25T02:06:33.167Z,8.17
2023-04-25T02:09:00.947Z,8.63
2023-04-25T02:11:28.670Z,9.63
2023-04-25T02:13:57.775Z,8.27
2023-04-25T02:16:26.427Z,8.27
2023-04-25T02:18:54.870Z,8.63
2023-04-25T02:21:22.574Z,9.50
2023-04-25T02:23:53.259Z,8.13
2023-04-25T02:26:22.024Z,8.23
2023-04-25T02:28:50.475Z,9.33
2023-04-25T02:31:19.603Z,9.90
2023-04-25T02:33:47.396Z,8.13
2023-04-25T02:36:15.920Z,7.97
2023-04-25T02:38:43.623Z,8.80
2023-04-25T02:41:11.272Z,8.17
2023-04-25T02:43:39.032Z,8.03
2023-04-25T02:46:06.793Z,7.97
2023-04-25T02:48:35.941Z,7.80
2023-04-25T02:51:03.657Z,8.30
2023-04-25T02:53:31.328Z,7.93
2023-04-25T02:56:00.130Z,8.10
2023-04-25T02:58:27.919Z,6.83
2023-04-25T03:00:55.812Z,8.33
2023-04-25T03:03:23.755Z,7.57
2023-04-25T03:05:53.409Z,6.90
2023-04-25T03:08:21.160Z,6.37
2023-04-25T03:10:49.308Z,7.07
2023-04-25T03:13:17.118Z,5.80
2023-04-25T03:15:46.252Z,6.00
2023-04-25T03:18:14.056Z,6.77
2023-04-25T03:20:42.848Z,6.17
2023-04-25T03:23:11.931Z,6.27
2023-04-25T03:25:39.680Z,6.63
2023-04-25T03:28:07.419Z,6.60
2023-04-25T03:30:35.327Z,6.67
2023-04-25T03:33:03.053Z,5.70
2023-04-25T03:35:31.242Z,6.50
2023-04-25T03:37:59.101Z,5.20
2023-04-25T03:40:28.298Z,5.97
2023-04-25T03:42:56.085Z,5.93
2023-04-25T03:45:23.964Z,5.93
2023-04-25T03:47:51.942Z,5.30
2023-04-25T03:50:19.740Z,4.00
2023-04-25T03:52:47.476Z,5.90
2023-04-25T03:55:15.200Z,4.23
2023-04-25T03:57:44.305Z,4.47
2023-04-25T04:00:13.169Z,4.63
2023-04-25T04:02:42.533Z,4.77
2023-04-25T04:05:12.853Z,4.07
2023-04-25T04:07:43.519Z,4.50
2023-04-25T04:10:12.049Z,4.77
2023-04-25T04:12:40.285Z,3.90
2023-04-25T04:15:10.865Z,3.70
2023-04-25T04:17:38.734Z,4.03
2023-04-25T04:20:08.686Z,3.60
2023-04-25T04:22:36.535Z,3.20
2023-04-25T04:25:06.812Z,3.67
2023-04-25T04:27:35.413Z,3.43
2023-04-25T04:30:04.363Z,3.23
2023-04-25T04:32:34.462Z,3.30
2023-04-25T04:35:02.269Z,3.53
2023-04-25T04:37:29.939Z,3.00
2023-04-25T04:39:57.685Z,3.60
2023-04-25T04:42:26.352Z,3.40
2023-04-25T04:44:55.954Z,3.03
2023-04-25T04:47:24.727Z,3.90
2023-04-25T04:49:53.834Z,3.20
2023-04-25T04:52:21.547Z,3.40
2023-04-25T04:54:49.302Z,4.13
2023-04-25T04:57:17.513Z,3.60
2023-04-25T04:59:45.506Z,3.90
2023-04-25T05:02:13.291Z,3.30
2023-04-25T05:04:41.589Z,5.60
2023-04-25T05:07:11.027Z,3.67
2023-04-25T05:09:38.673Z,3.33
2023-04-25T05:12:07.002Z,3.00
2023-04-25T05:14:34.974Z,3.80
2023-04-25T05:17:04.612Z,3.80
2023-04-25T05:19:32.507Z,3.23
2023-04-25T05:22:00.273Z,2.70
2023-04-25T05:24:29.302Z,3.20
2023-04-25T05:26:57.130Z,4.00
2023-04-25T05:29:25.061Z,3.47
2023-04-25T05:31:53.072Z,3.43
2023-04-25T05:34:21.374Z,3.80
2023-04-25T05:36:50.012Z,3.90
2023-04-25T05:39:18.453Z,4.17
2023-04-25T05:41:47.607Z,4.80
2023-04-25T05:44:16.905Z,3.47
2023-04-25T05:46:44.661Z,3.87
2023-04-25T05:49:12.476Z,4.17
2023-04-25T05:51:40.215Z,3.50
2023-04-25T05:54:07.972Z,3.43
2023-04-25T05:56:35.781Z,3.27
2023-04-25T05:59:05.210Z,3.83
2023-04-25T06:01:33.037Z,3.57
2023-04-25T06:04:01.017Z,3.10
2023-04-25T06:06:28.960Z,3.40
2023-04-25T06:08:56.776Z,3.70
2023-04-25T06:11:24.589Z,4.73
2023-04-25T06:13:52.585Z,3.43
2023-04-25T06:16:22.141Z,3.50
2023-04-25T06:18:49.893Z,2.70
2023-04-25T06:21:17.574Z,4.27
2023-04-25T06:23:45.728Z,3.30
2023-04-25T06:26:13.426Z,2.90
2023-04-25T06:28:41.373Z,3.33
2023-04-25T06:31:09.172Z,2.80
2023-04-25T06:33:38.198Z,3.60
2023-04-25T06:36:06.263Z,2.97
2023-04-25T06:38:35.888Z,2.43
2023-04-25T06:41:03.768Z,3.37
2023-04-25T06:43:34.088Z,3.03
2023-04-25T06:46:02.204Z,3.00
2023-04-25T06:48:30.094Z,3.20
2023-04-25T06:50:59.194Z,2.67
2023-04-25T06:53:26.959Z,2.77
2023-04-25T06:55:54.794Z,2.87
2023-04-25T06:58:22.691Z,2.70
2023-04-25T07:00:50.569Z,2.70
2023-04-25T07:03:18.393Z,3.13
2023-04-25T07:05:47.041Z,3.33
2023-04-25T07:08:16.123Z,2.80
2023-04-25T07:10:44.016Z,3.20
2023-04-25T07:13:11.741Z,2.87
2023-04-25T07:15:39.537Z,3.03
2023-04-25T07:18:07.369Z,3.00
2023-04-25T07:20:35.161Z,2.63
2023-04-25T07:23:02.839Z,3.00
2023-04-25T07:25:32.543Z,2.97
2023-04-25T07:28:00.312Z,3.40
2023-04-25T07:30:28.468Z,2.97
2023-04-25T07:32:56.546Z,2.53
2023-04-25T07:35:24.692Z,2.43
2023-04-25T07:37:52.707Z,2.40
2023-04-25T07:40:20.550Z,2.40
2023-04-25T07:42:49.694Z,2.20
2023-04-25T07:45:17.604Z,3.37
2023-04-25T07:47:45.909Z,2.33
2023-04-25T07:50:13.702Z,2.00
2023-04-25T07:52:41.489Z,2.17
2023-04-25T07:55:10.331Z,2.20
2023-04-25T07:57:39.373Z,2.40
2023-04-25T08:00:12.137Z,2.57
2023-04-25T08:02:40.017Z,1.93
2023-04-25T08:05:12.686Z,1.97
2023-04-25T08:07:41.222Z,2.13
2023-04-25T08:10:09.885Z,2.00
2023-04-25T08:12:37.712Z,2.77
2023-04-25T08:15:09.216Z,2.70
2023-04-25T08:17:37.263Z,2.43
2023-04-25T08:20:06.846Z,2.07
2023-04-25T08:22:35.020Z,2.13
2023-04-25T08:25:02.769Z,1.53
2023-04-25T08:27:30.888Z,1.50
2023-04-25T08:29:59.433Z,2.47
2023-04-25T08:32:30.267Z,1.73
2023-04-25T08:34:58.729Z,2.03
2023-04-25T08:37:26.788Z,1.50
2023-04-25T08:39:54.870Z,1.63
2023-04-25T08:42:23.963Z,1.83
2023-04-25T08:44:52.036Z,2.40
2023-04-25T08:47:21.284Z,2.13
2023-04-25T08:49:50.798Z,2.53
2023-04-25T08:52:19.305Z,2.00
2023-04-25T08:54:47.985Z,2.73
2023-04-25T08:57:16.826Z,1.57
2023-04-25T08:59:46.670Z,2.57
2023-04-25T09:02:17.608Z,1.97
2023-04-25T09:04:46.297Z,1.90
2023-04-25T09:07:19.572Z,1.90
2023-04-25T09:09:47.433Z,2.80
2023-04-25T09:12:15.406Z,2.03
2023-04-25T09:14:44.796Z,2.00
2023-04-25T09:17:12.611Z,1.90
2023-04-25T09:19:42.335Z,1.63
2023-04-25T09:22:10.841Z,1.57
2023-04-25T09:24:41.669Z,1.70
2023-04-25T09:27:10.151Z,2.40
2023-04-25T09:29:39.125Z,1.27
2023-04-25T09:32:14.615Z,1.87
2023-04-25T09:34:43.275Z,1.90
2023-04-25T09:37:11.651Z,2.03
2023-04-25T09:39:41.804Z,1.67
2023-04-25T09:42:11.475Z,1.50
2023-04-25T09:44:39.245Z,1.80
2023-04-25T09:47:12.201Z,1.50
2023-04-25T09:49:42.164Z,1.80
2023-04-25T09:52:10.356Z,2.07
2023-04-25T09:54:38.071Z,1.03
2023-04-25T09:57:13.223Z,1.90
2023-04-25T09:59:42.424Z,1.53
2023-04-25T10:02:11.474Z,1.70
2023-04-25T10:04:40.512Z,1.57
2023-04-25T10:07:09.278Z,2.50
2023-04-25T10:09:40.501Z,1.20
2023-04-25T10:12:10.288Z,1.87
2023-04-25T10:14:38.195Z,1.90
2023-04-25T10:17:05.941Z,2.13
2023-04-25T10:19:34.202Z,1.70
2023-04-25T10:22:09.477Z,1.10
2023-04-25T10:24:37.697Z,1.67
2023-04-25T10:27:06.320Z,2.10
2023-04-25T10:29:35.619Z,1.60
2023-04-25T10:32:04.486Z,1.70
2023-04-25T10:34:42.774Z,1.43
2023-04-25T10:37:13.552Z,1.93
2023-04-25T10:39:42.926Z,1.40
2023-04-25T10:42:10.906Z,1.13
2023-04-25T10:44:41.161Z,1.27
2023-04-25T10:47:10.405Z,1.00
2023-04-25T10:49:39.592Z,1.37
2023-04-25T10:52:15.192Z,1.30
2023-04-25T10:54:44.429Z,1.30
2023-04-25T10:57:34.310Z,1.47
2023-04-25T11:00:10.314Z,1.30
2023-04-25T11:02:46.426Z,1.43
2023-04-25T11:05:23.818Z,1.50
2023-04-25T11:08:03.962Z,1.40
2023-04-25T11:10:36.441Z,1.30
2023-04-25T11:13:05.019Z,1.70
2023-04-25T11:15:34.228Z,1.47
2023-04-25T11:18:02.422Z,1.03
2023-04-25T11:20:30.674Z,1.03
2023-04-25T11:23:00.272Z,1.83
2023-04-25T11:25:28.226Z,1.67
2023-04-25T11:27:57.114Z,1.33
2023-04-25T11:30:26.481Z,1.83
2023-04-25T11:32:55.883Z,2.20
2023-04-25T11:35:26.304Z,1.60
2023-04-25T11:37:54.308Z,1.70
2023-04-25T11:40:22.138Z,2.07
2023-04-25T11:42:50.092Z,1.53
2023-04-25T11:45:19.732Z,2.57
2023-04-25T11:47:47.636Z,1.43
2023-04-25T11:50:16.786Z,1.60
2023-04-25T11:52:46.115Z,2.13
2023-04-25T11:55:16.291Z,1.73
2023-04-25T11:57:45.560Z,2.10
2023-04-25T12:00:18.661Z,1.97
2023-04-25T12:02:48.978Z,2.00
2023-04-25T12:07:49.000Z,1.90
2023-04-25T12:10:17.978Z,1.93
2023-04-25T12:12:47.187Z,1.40
2023-04-25T12:15:18.390Z,1.57
2023-04-25T12:17:47.719Z,0.80
2023-04-25T12:20:17.016Z,1.20
2023-04-25T12:22:47.655Z,1.83
2023-04-25T12:25:15.611Z,2.10
2023-04-25T12:27:44.903Z,1.40
2023-04-25T12:30:13.354Z,0.97
2023-04-25T12:32:41.146Z,1.30
2023-04-25T12:35:09.569Z,1.73
2023-04-25T12:37:37.387Z,1.60
2023-04-25T12:40:08.472Z,1.23
2023-04-25T12:42:36.501Z,1.67
2023-04-25T12:45:04.520Z,1.30
2023-04-25T12:47:32.287Z,1.53
2023-04-25T12:49:59.962Z,1.30
2023-04-25T12:52:27.626Z,1.90
2023-04-25T12:54:55.285Z,1.13
2023-04-25T12:57:24.292Z,1.10
2023-04-25T12:59:52.376Z,1.70
2023-04-25T13:02:20.317Z,1.53
2023-04-25T13:04:48.047Z,1.67
2023-04-25T13:07:16.588Z,1.57
2023-04-25T13:09:44.241Z,1.20
2023-04-25T13:12:11.970Z,1.33
2023-04-25T13:14:40.962Z,1.53
2023-04-25T13:17:08.709Z,1.50
2023-04-25T13:19:36.945Z,1.50
2023-04-25T13:22:05.350Z,2.33
2023-04-25T13:24:33.160Z,1.83
2023-04-25T13:27:00.981Z,1.97
2023-04-25T13:29:28.711Z,1.57
2023-04-25T13:31:57.785Z,2.00
2023-04-25T13:34:25.586Z,2.00
2023-04-25T13:36:53.291Z,1.73
2023-04-25T13:39:21.397Z,1.93
2023-04-25T13:41:49.124Z,1.60
2023-04-25T13:44:17.201Z,1.53
2023-04-25T13:46:47.409Z,1.60
2023-04-25T13:49:16.884Z,1.47
2023-04-25T13:51:44.627Z,1.40
2023-04-25T13:54:12.347Z,1.60
2023-04-25T13:56:43.011Z,1.90
2023-04-25T13:59:10.868Z,1.87
2023-04-25T14:01:39.070Z,1.83
2023-04-25T14:04:06.878Z,1.80
2023-04-25T14:06:36.521Z,1.40
2023-04-25T14:09:05.507Z,1.60
2023-04-25T14:11:33.299Z,1.83
2023-04-25T14:14:01.086Z,2.17
2023-04-25T14:16:29.372Z,1.50
2023-04-25T14:18:57.216Z,1.30
2023-04-25T14:21:25.043Z,1.67
2023-04-25T14:23:55.976Z,1.33
2023-04-25T14:26:23.732Z,1.93
2023-04-25T14:28:52.290Z,2.17
2023-04-25T14:31:20.112Z,1.90
2023-04-25T14:33:47.894Z,2.50
2023-04-25T14:36:16.275Z,1.70
2023-04-25T14:38:44.056Z,1.77
2023-04-25T14:41:13.162Z,1.90
2023-04-25T14:43:42.196Z,2.10
2023-04-25T14:46:10.050Z,1.73
2023-04-25T14:48:38.023Z,1.80
2023-04-25T14:51:06.106Z,1.87
2023-04-25T14:53:34.257Z,2.27
2023-04-25T14:56:02.122Z,1.83
2023-04-25T14:58:31.795Z,2.10
2023-04-25T15:00:59.581Z,2.20
2023-04-25T15:03:27.567Z,2.03
2023-04-25T15:05:57.356Z,1.70
2023-04-25T15:08:25.072Z,2.13
2023-04-25T15:10:52.888Z,2.40
2023-04-25T15:13:21.249Z,1.67
2023-04-25T15:15:52.302Z,1.20
2023-04-25T15:18:22.960Z,2.00
2023-04-25T15:20:50.900Z,1.47
2023-04-25T15:23:18.915Z,2.60
2023-04-25T15:25:46.683Z,1.70
2023-04-25T15:28:16.801Z,1.30
2023-04-25T15:30:46.383Z,1.50
2023-04-25T15:33:16.024Z,1.20
2023-04-25T15:35:43.964Z,1.63
2023-04-25T15:38:12.284Z,1.37
2023-04-25T15:40:39.926Z,1.80
2023-04-25T15:43:08.067Z,1.30
2023-04-25T15:45:37.862Z,1.37
2023-04-25T15:48:06.121Z,1.30
2023-04-25T15:50:36.436Z,1.53
2023-04-25T15:53:05.844Z,2.27
2023-04-25T15:55:35.449Z,1.63
2023-04-25T15:58:03.454Z,1.90
2023-04-25T16:00:31.305Z,1.73
2023-04-25T16:02:59.333Z,1.97
2023-04-25T16:05:27.499Z,2.10
2023-04-25T16:07:56.619Z,1.60
2023-04-25T16:10:24.473Z,1.43
2023-04-25T16:12:52.135Z,1.80
2023-04-25T16:15:19.831Z,2.27
2023-04-25T16:17:47.606Z,1.97
2023-04-25T16:20:15.421Z,2.07
2023-04-25T16:22:44.074Z,2.37
2023-04-25T16:25:13.268Z,2.30
2023-04-25T16:27:41.253Z,2.60
2023-04-25T16:30:10.244Z,1.97
2023-04-25T16:32:39.888Z,2.13
2023-04-25T16:35:08.655Z,3.53
2023-04-25T16:37:36.371Z,2.33
2023-04-25T16:40:04.300Z,1.67
2023-04-25T16:42:33.389Z,2.07
2023-04-25T16:45:01.080Z,1.80
2023-04-25T16:47:28.916Z,1.50
2023-04-25T16:49:57.405Z,1.80
2023-04-25T16:52:25.517Z,2.10
2023-04-25T16:54:53.229Z,1.73
2023-04-25T16:57:21.205Z,1.90
2023-04-25T16:59:50.227Z,2.43
2023-04-25T17:02:18.018Z,2.07
2023-04-25T17:04:45.817Z,2.50
2023-04-25T17:07:13.652Z,2.50
2023-04-25T17:09:41.277Z,1.93
2023-04-25T17:12:09.364Z,1.40
2023-04-25T17:14:37.227Z,2.33
2023-04-25T17:17:07.021Z,1.87
2023-04-25T17:19:34.765Z,2.10
2023-04-25T17:22:02.485Z,2.17
2023-04-25T17:24:30.272Z,1.90
2023-04-25T17:26:58.052Z,2.10
2023-04-25T17:29:26.879Z,1.80
2023-04-25T17:31:54.664Z,2.67
2023-04-25T17:34:23.767Z,2.10
2023-04-25T17:36:51.478Z,1.90
2023-04-25T17:39:20.020Z,1.70
2023-04-25T17:41:47.713Z,1.93
2023-04-25T17:44:15.398Z,2.37
2023-04-25T17:46:43.145Z,1.70
2023-04-25T17:49:11.579Z,1.93
2023-04-25T17:51:40.735Z,1.67
2023-04-25T17:54:08.889Z,2.00
2023-04-25T17:56:38.433Z,2.20
2023-04-25T17:59:06.232Z,2.23
2023-04-25T18:01:34.141Z,2.10
2023-04-25T18:04:04.146Z,2.30
2023-04-25T18:06:32.955Z,2.00
2023-04-25T18:09:03.008Z,1.80
2023-04-25T18:11:31.085Z,2.20
2023-04-25T18:13:58.953Z,1.90
2023-04-25T18:16:26.780Z,1.93
2023-04-25T18:18:54.856Z,2.40
2023-04-25T18:21:22.859Z,1.80
2023-04-25T18:23:50.528Z,2.10
2023-04-25T18:26:20.204Z,1.93
2023-04-25T18:28:48.152Z,2.00
2023-04-25T18:31:17.397Z,2.00
2023-04-25T18:33:45.478Z,1.87
2023-04-25T18:36:13.357Z,2.03
2023-04-25T18:38:40.997Z,1.73
2023-04-25T18:41:34.138Z,2.57
2023-04-25T18:44:01.269Z,2.73
2023-04-25T18:46:29.214Z,2.60
2023-04-25T18:48:57.588Z,1.93
2023-04-25T18:51:27.699Z,2.00
2023-04-25T18:53:55.513Z,1.93
2023-04-25T18:56:24.350Z,1.73
2023-04-25T18:58:52.413Z,1.90
2023-04-25T19:01:21.934Z,2.53
2023-04-25T19:03:55.693Z,2.13
2023-04-25T19:06:24.721Z,2.00
2023-04-25T19:08:53.167Z,1.97
2023-04-25T19:11:21.488Z,2.27
2023-04-25T19:13:49.297Z,1.93
2023-04-25T19:16:17.408Z,2.23
2023-04-25T19:18:47.456Z,3.67
2023-04-25T19:21:15.568Z,2.00
2023-04-25T19:23:43.311Z,2.30
2023-04-25T19:26:10.994Z,2.50
2023-04-25T19:28:38.970Z,1.90
2023-04-25T19:31:07.239Z,2.10
2023-04-25T19:33:35.056Z,2.27
2023-04-25T19:36:04.403Z,3.13
2023-04-25T19:38:32.494Z,2.00
2023-04-25T19:41:01.136Z,2.53
2023-04-25T19:43:30.799Z,2.07
2023-04-25T19:45:58.591Z,1.63
2023-04-25T19:48:26.528Z,2.30
2023-04-25T19:50:54.246Z,2.50
2023-04-25T19:53:23.330Z,2.50
2023-04-25T19:55:51.016Z,1.93
2023-04-25T19:58:18.780Z,2.63
2023-04-25T20:00:46.437Z,2.30
2023-04-25T20:03:15.940Z,2.27
2023-04-25T20:05:43.749Z,2.43
2023-04-25T20:08:11.898Z,1.90
2023-04-25T20:10:41.034Z,2.43
2023-04-25T20:13:08.942Z,2.47
2023-04-25T20:15:37.097Z,1.77
2023-04-25T20:18:05.188Z,2.30
2023-04-25T20:20:33.382Z,2.67
2023-04-25T20:23:01.105Z,2.57
2023-04-25T20:25:28.849Z,2.23
2023-04-25T20:27:57.965Z,2.47
2023-04-25T20:30:25.734Z,2.17
2023-04-25T20:32:53.527Z,3.30
2023-04-25T20:35:22.763Z,2.50
2023-04-25T20:37:50.652Z,2.40
2023-04-25T20:40:18.666Z,2.37
2023-04-25T20:42:47.373Z,2.10
2023-04-25T20:45:16.567Z,2.40
2023-04-25T20:47:44.558Z,2.20
2023-04-25T20:50:12.611Z,2.17
2023-04-25T20:52:40.451Z,2.50
2023-04-25T20:55:10.892Z,2.03
2023-04-25T20:57:38.786Z,2.50
2023-04-25T21:00:15.696Z,2.27
2023-04-25T21:02:44.975Z,2.40
2023-04-25T21:05:12.836Z,2.50
2023-04-25T21:07:40.612Z,2.70
2023-04-25T21:10:08.954Z,3.03
2023-04-25T21:12:36.657Z,2.20
2023-04-25T21:15:04.867Z,2.40
2023-04-25T21:17:32.541Z,2.50
2023-04-25T21:20:01.602Z,2.70
2023-04-25T21:22:29.303Z,2.23
2023-04-25T21:24:57.250Z,2.50
2023-04-25T21:27:25.022Z,2.20
2023-04-25T21:29:52.713Z,2.90
2023-04-25T21:32:21.921Z,2.53
2023-04-25T21:34:49.636Z,2.07
2023-04-25T21:37:18.944Z,2.50
2023-04-25T21:39:47.959Z,2.57
2023-04-25T21:42:15.695Z,3.10
2023-04-25T21:44:43.378Z,2.90
2023-04-25T21:47:11.109Z,2.87
2023-04-25T21:49:38.837Z,4.13
2023-04-25T21:52:06.935Z,3.23
2023-04-25T21:54:36.509Z,3.00
2023-04-25T21:57:04.404Z,3.43
2023-04-25T21:59:32.897Z,2.87
2023-04-25T22:02:00.592Z,3.63
2023-04-25T22:04:28.548Z,3.63
2023-04-25T22:06:57.008Z,4.77
2023-04-25T22:09:24.806Z,4.00
2023-04-25T22:11:53.950Z,3.33
2023-04-25T22:14:22.117Z,4.13
2023-04-25T22:16:50.299Z,4.10
2023-04-25T22:19:18.003Z,3.73
2023-04-25T22:21:45.711Z,3.63
2023-04-25T22:24:13.655Z,4.40
2023-04-25T22:26:41.776Z,3.57
2023-04-25T22:29:10.963Z,3.90
2023-04-25T22:31:38.721Z,3.83
2023-04-25T22:34:06.677Z,3.80
2023-04-25T22:36:34.690Z,3.87
2023-04-25T22:39:02.971Z,2.93
2023-04-25T22:41:30.908Z,3.40
2023-04-25T22:43:58.627Z,3.40
2023-04-25T22:46:27.704Z,4.57
2023-04-25T22:48:55.901Z,4.40
2023-04-25T22:51:24.007Z,4.20
2023-04-25T22:53:51.766Z,4.37
2023-04-25T22:56:19.525Z,4.27
2023-04-25T22:58:47.271Z,4.47
2023-04-25T23:01:18.201Z,5.10
2023-04-25T23:03:48.493Z,5.13
2023-04-25T23:06:17.173Z,5.10
2023-04-25T23:08:45.376Z,4.93
2023-04-25T23:11:14.127Z,4.03
2023-04-25T23:13:41.848Z,4.67
2023-04-25T23:16:10.776Z,5.27
2023-04-25T23:18:39.247Z,4.53
2023-04-25T23:21:09.281Z,5.30
2023-04-25T23:23:38.086Z,5.33
2023-04-25T23:26:09.293Z,4.20
2023-04-25T23:28:39.868Z,4.33
2023-04-25T23:31:11.669Z,4.50
2023-04-25T23:33:39.493Z,5.47
2023-04-25T23:36:09.318Z,4.60
2023-04-25T23:38:37.887Z,5.00
2023-04-25T23:41:05.661Z,4.50
2023-04-25T23:43:33.421Z,5.13
2023-04-25T23:46:01.112Z,5.60
2023-04-25T23:48:28.765Z,4.77
2023-04-25T23:50:56.707Z,5.30
2023-04-25T23:53:25.872Z,6.90
2023-04-25T23:55:53.542Z,5.70
2023-04-25T23:58:21.244Z,5.97
